Time;durP1;ratioP1;P1;durP2;ratioP2;P2;SDS_P1;SDS_P2;PMS_P1;PMS_P2;Temp;Humidity;BMP_temperature;BMP_pressure;BME280_temperature;BME280_humidity;BME280_pressure;Samples;Min_cycle;Max_cycle;Signal;HPM_P1;HPM_P2
2024/03/03 00:01:35;;;;;;;8.73;4.28;;;;;;;9.96;78.30;99616.75;5000628;28;21253;-73
2024/03/03 00:04:00;;;;;;;6.30;4.25;;;;;;;9.84;80.04;99620.78;5016980;28;20455;-73
2024/03/03 00:06:26;;;;;;;7.78;4.45;;;;;;;9.98;79.61;99611.41;5009152;28;20036;-73
2024/03/03 00:08:51;;;;;;;9.18;4.53;;;;;;;9.94;79.64;99606.59;5011366;28;20575;-74
2024/03/03 00:11:16;;;;;;;10.27;4.15;;;;;;;9.89;80.24;99611.50;4979948;28;20038;-73
2024/03/03 00:13:42;;;;;;;10.13;5.13;;;;;;;9.83;80.66;99599.28;4996817;28;20042;-73
2024/03/03 00:16:08;;;;;;;8.98;4.90;;;;;;;9.82;81.04;99602.84;5003016;28;20053;-73
2024/03/03 00:18:37;;;;;;;12.35;5.40;;;;;;;9.78;81.75;99600.81;4980248;28;20044;-73
2024/03/03 00:21:04;;;;;;;8.88;4.47;;;;;;;9.77;81.31;99604.38;4988202;28;20040;-73
2024/03/03 00:23:30;;;;;;;9.30;5.15;;;;;;;9.82;81.20;99602.84;5003849;28;20517;-74
2024/03/03 00:25:55;;;;;;;9.15;4.72;;;;;;;9.93;81.10;99597.22;5006674;28;20049;-73
2024/03/03 00:28:20;;;;;;;11.73;5.60;;;;;;;9.87;81.50;99600.53;5003938;28;20492;-73
2024/03/03 00:30:46;;;;;;;14.13;5.72;;;;;;;9.74;82.13;99592.59;4968677;28;20550;-73
2024/03/03 00:33:11;;;;;;;14.95;5.47;;;;;;;9.63;82.97;99593.84;5003806;28;20770;-73
2024/03/03 00:35:37;;;;;;;8.93;4.95;;;;;;;9.64;83.53;99592.84;4981274;28;20042;-73
2024/03/03 00:38:03;;;;;;;14.70;5.43;;;;;;;9.51;83.93;99596.09;5014311;28;20077;-73
2024/03/03 00:40:28;;;;;;;10.40;5.38;;;;;;;9.57;84.06;99606.69;4980071;28;20149;-73
2024/03/03 00:42:54;;;;;;;10.90;5.30;;;;;;;9.64;83.73;99590.25;5001634;28;20030;-75
2024/03/03 00:45:19;;;;;;;10.77;5.43;;;;;;;9.59;84.28;99590.00;5018895;28;20025;-76
2024/03/03 00:47:45;;;;;;;10.32;6.07;;;;;;;9.52;85.27;99584.72;5016412;28;20026;-75
2024/03/03 00:50:11;;;;;;;11.68;5.93;;;;;;;9.52;84.61;99584.72;4996704;28;20037;-76
2024/03/03 00:52:37;;;;;;;11.45;6.20;;;;;;;9.56;85.03;99590.34;5008496;23;20077;-73
2024/03/03 00:55:03;;;;;;;9.68;6.03;;;;;;;9.63;84.59;99600.81;4977544;28;20038;-72
2024/03/03 00:57:28;;;;;;;11.48;6.30;;;;;;;9.64;84.89;99605.00;4963277;28;20517;-73
2024/03/03 00:59:54;;;;;;;10.98;6.22;;;;;;;9.59;85.12;99600.38;4947585;28;20045;-73
2024/03/03 01:02:19;;;;;;;11.10;6.38;;;;;;;9.53;85.50;99601.88;4959390;28;20057;-73
2024/03/03 01:04:45;;;;;;;11.50;6.10;;;;;;;9.61;85.37;99603.56;4977663;28;20031;-70
2024/03/03 01:07:10;;;;;;;17.67;6.75;;;;;;;9.65;85.58;99588.50;4944489;28;20549;-70
2024/03/03 01:09:36;;;;;;;13.90;7.05;;;;;;;9.61;85.58;99588.03;4984457;28;20034;-70
2024/03/03 01:12:02;;;;;;;11.93;5.97;;;;;;;9.70;85.07;99594.75;4949028;28;20046;-70
2024/03/03 01:14:30;;;;;;;11.23;6.53;;;;;;;9.64;85.18;99592.06;4961101;28;20030;-72
2024/03/03 01:16:55;;;;;;;15.30;6.38;;;;;;;9.58;86.05;99592.78;4953006;28;20118;-70
2024/03/03 01:19:21;;;;;;;12.07;6.60;;;;;;;9.57;85.77;99589.38;4954688;28;20052;-70
2024/03/03 01:21:46;;;;;;;16.55;6.10;;;;;;;9.62;86.35;99586.25;4965120;28;20038;-70
2024/03/03 01:24:12;;;;;;;12.23;6.68;;;;;;;9.63;85.77;99585.28;4962298;28;20038;-70
2024/03/03 01:26:37;;;;;;;13.43;7.28;;;;;;;9.64;85.75;99579.09;4981295;28;20038;-70
2024/03/03 01:29:03;;;;;;;14.15;6.25;;;;;;;9.61;85.99;99588.03;4964372;28;20571;-73
2024/03/03 01:31:29;;;;;;;12.52;6.93;;;;;;;9.62;85.89;99587.03;4968767;28;20055;-73
2024/03/03 01:33:54;;;;;;;10.70;6.00;;;;;;;9.61;85.77;99587.25;4987085;28;20409;-73
2024/03/03 01:36:20;;;;;;;15.35;7.00;;;;;;;9.59;86.82;99581.41;4967912;28;20038;-73
2024/03/03 01:38:45;;;;;;;13.32;7.20;;;;;;;9.51;86.32;99577.97;4954802;28;20439;-73
2024/03/03 01:41:11;;;;;;;13.45;6.57;;;;;;;9.60;86.32;99583.84;4963709;28;20026;-73
2024/03/03 01:43:36;;;;;;;12.82;6.50;;;;;;;9.65;85.19;99586.69;4952407;28;20412;-73
2024/03/03 01:46:02;;;;;;;12.32;7.15;;;;;;;9.65;85.46;99585.91;4961086;28;20043;-73
2024/03/03 01:48:28;;;;;;;11.27;5.78;;;;;;;9.63;85.40;99588.66;4976530;28;20062;-73
2024/03/03 01:50:55;;;;;;;13.77;7.18;;;;;;;9.45;86.37;99595.97;4951855;28;20039;-73
2024/03/03 01:53:22;;;;;;;13.23;6.68;;;;;;;9.43;86.74;99595.34;4961312;28;20521;-73
2024/03/03 01:55:48;;;;;;;15.07;6.97;;;;;;;9.46;86.52;99600.19;4962440;28;21050;-73
2024/03/03 01:58:15;;;;;;;13.27;6.75;;;;;;;9.53;86.03;99601.06;4947215;28;20038;-73
2024/03/03 02:00:41;;;;;;;12.88;6.88;;;;;;;9.45;86.56;99590.81;4964099;28;20053;-73
2024/03/03 02:03:09;;;;;;;15.00;7.30;;;;;;;9.58;85.77;99596.16;4977866;28;20038;-73
2024/03/03 02:05:36;;;;;;;14.75;7.28;;;;;;;9.47;86.19;99587.03;4964850;28;20057;-73
2024/03/03 02:08:03;;;;;;;16.52;6.75;;;;;;;9.48;86.08;99583.50;4969957;28;20042;-73
2024/03/03 02:10:30;;;;;;;14.13;8.20;;;;;;;9.53;85.71;99580.34;4949763;28;20065;-73
2024/03/03 02:12:56;;;;;;;14.80;7.13;;;;;;;9.49;85.83;99585.09;4968361;28;20030;-73
2024/03/03 02:15:22;;;;;;;12.63;6.93;;;;;;;9.40;86.08;99580.16;4949696;28;20038;-73
2024/03/03 02:17:49;;;;;;;12.20;7.00;;;;;;;9.39;86.13;99574.19;4980775;28;20038;-73
2024/03/03 02:20:15;;;;;;;14.15;8.10;;;;;;;9.49;85.52;99585.09;4977350;28;20060;-74
2024/03/03 02:22:40;;;;;;;14.02;6.68;;;;;;;9.45;85.55;99588.22;4984468;28;20604;-73
2024/03/03 02:25:08;;;;;;;15.45;7.68;;;;;;;9.46;85.73;99579.47;4965413;28;20038;-73
2024/03/03 02:27:34;;;;;;;12.23;6.43;;;;;;;9.47;85.60;99579.28;4963682;28;20042;-73
2024/03/03 02:30:02;;;;;;;14.65;7.25;;;;;;;9.39;85.95;99578.59;4967865;28;20073;-73
2024/03/03 02:32:29;;;;;;;12.50;7.25;;;;;;;9.47;85.77;99583.66;4983628;28;20043;-73
2024/03/03 02:34:54;;;;;;;12.63;7.30;;;;;;;9.36;85.85;99584.91;4967974;28;20027;-73
2024/03/03 02:37:20;;;;;;;13.75;7.22;;;;;;;9.30;86.63;99580.44;4984334;28;20575;-73
2024/03/03 02:39:46;;;;;;;15.82;6.93;;;;;;;9.30;86.74;99581.22;4965070;28;20081;-73
2024/03/03 02:42:11;;;;;;;10.82;6.55;;;;;;;9.23;86.93;99580.34;4979777;28;20046;-73
2024/03/03 02:44:37;;;;;;;14.75;7.07;;;;;;;9.26;87.43;99574.00;4965722;28;20042;-70
2024/03/03 02:47:02;;;;;;;13.73;7.32;;;;;;;9.29;86.72;99576.25;4948037;28;20031;-70
2024/03/03 02:49:28;;;;;;;16.55;7.40;;;;;;;9.27;86.58;99567.88;4981996;28;20445;-73
2024/03/03 02:51:54;;;;;;;11.85;6.93;;;;;;;9.28;86.60;99572.84;4985009;28;20038;-73
2024/03/03 02:54:20;;;;;;;12.55;7.03;;;;;;;9.37;85.73;99570.19;4964537;28;20088;-73
2024/03/03 02:56:46;;;;;;;12.10;6.43;;;;;;;9.37;85.88;99576.16;4982457;28;20035;-73
2024/03/03 02:59:12;;;;;;;13.88;7.03;;;;;;;9.41;85.38;99569.66;4979548;28;20037;-73
2024/03/03 03:01:37;;;;;;;12.40;6.82;;;;;;;9.41;85.88;99567.06;4967231;28;20058;-73
2024/03/03 03:04:03;;;;;;;15.18;7.28;;;;;;;9.37;86.01;99573.56;4968154;28;20053;-73
2024/03/03 03:06:29;;;;;;;14.80;6.85;;;;;;;9.49;85.31;99574.75;4967589;28;20463;-72
2024/03/03 03:08:54;;;;;;;12.85;7.10;;;;;;;9.43;85.39;99574.66;4952338;28;20034;-73
2024/03/03 03:11:20;;;;;;;15.32;7.20;;;;;;;9.32;86.21;99575.88;4961291;28;20061;-72
2024/03/03 03:13:45;;;;;;;13.88;6.45;;;;;;;9.35;85.87;99578.94;4976771;28;20026;-73
2024/03/03 03:16:11;;;;;;;14.70;6.55;;;;;;;9.33;86.19;99574.91;4967048;28;20132;-73
2024/03/03 03:18:36;;;;;;;10.45;6.43;;;;;;;9.26;86.70;99572.22;4965523;28;20034;-73
2024/03/03 03:21:08;;;;;;;13.05;6.45;;;;;;;9.26;86.29;99569.63;4963157;28;20046;-73
2024/03/03 03:23:33;;;;;;;20.20;6.78;;;;;;;9.14;86.68;99558.94;4964788;28;20034;-73
2024/03/03 03:26:00;;;;;;;12.68;7.10;;;;;;;9.12;87.58;99557.50;4982726;28;20101;-70
2024/03/03 03:28:26;;;;;;;14.43;6.63;;;;;;;9.16;87.20;99553.59;4967871;28;20076;-70
2024/03/03 03:30:51;;;;;;;13.90;6.45;;;;;;;9.08;87.89;99562.22;4947217;28;20575;-70
2024/03/03 03:33:16;;;;;;;11.90;6.80;;;;;;;9.17;87.31;99562.94;4964863;28;20173;-70
2024/03/03 03:35:42;;;;;;;11.85;6.47;;;;;;;9.13;87.12;99559.91;4964057;28;20038;-70
2024/03/03 03:38:08;;;;;;;14.75;7.20;;;;;;;9.19;87.09;99570.53;4952267;28;20037;-73
2024/03/03 03:40:33;;;;;;;13.73;7.30;;;;;;;9.17;86.83;99573.28;4962097;28;20118;-73
2024/03/03 03:42:59;;;;;;;14.88;6.70;;;;;;;9.20;87.01;99575.53;4965985;28;20086;-73
2024/03/03 03:45:24;;;;;;;15.77;6.53;;;;;;;9.18;86.47;99576.69;4962683;28;20041;-73
2024/03/03 03:47:50;;;;;;;12.27;6.68;;;;;;;9.18;87.04;99582.66;4981951;28;20026;-72
2024/03/03 03:50:15;;;;;;;12.77;7.38;;;;;;;9.16;86.78;99594.97;4965258;28;20042;-74
2024/03/03 03:52:41;;;;;;;14.02;6.85;;;;;;;9.22;86.71;99596.03;4983189;28;20503;-72
2024/03/03 03:55:07;;;;;;;13.57;7.20;;;;;;;9.22;86.81;99586.50;4982576;28;20122;-73
2024/03/03 03:57:33;;;;;;;16.17;7.00;;;;;;;9.28;87.02;99593.53;4963487;28;20667;-73
2024/03/03 03:59:59;;;;;;;12.43;6.85;;;;;;;9.16;86.97;99589.78;4950207;28;20019;-73
2024/03/03 04:02:27;;;;;;;13.25;6.97;;;;;;;9.11;87.09;99592.09;4963088;28;20113;-73
2024/03/03 04:04:52;;;;;;;14.13;6.53;;;;;;;9.11;87.42;99605.81;4975375;28;20026;-73
2024/03/03 04:07:18;;;;;;;11.05;6.45;;;;;;;9.18;86.98;99594.78;5002423;23;20573;-69
2024/03/03 04:09:43;;;;;;;13.38;6.60;;;;;;;9.17;87.16;99599.16;4978418;28;20046;-69
2024/03/03 04:12:09;;;;;;;15.02;6.55;;;;;;;9.16;87.00;99600.94;4979959;28;20407;-69
2024/03/03 04:14:34;;;;;;;12.70;6.30;;;;;;;9.14;87.25;99605.47;5001638;28;20041;-69
2024/03/03 04:17:00;;;;;;;13.20;6.63;;;;;;;9.13;87.47;99609.03;4968878;28;20039;-69
2024/03/03 04:19:26;;;;;;;13.50;6.68;;;;;;;9.19;87.48;99614.50;4983676;28;20077;-69
2024/03/03 04:21:51;;;;;;;16.25;7.38;;;;;;;9.14;87.39;99618.41;4981680;28;20046;-69
2024/03/03 04:24:17;;;;;;;13.15;6.72;;;;;;;9.22;87.36;99619.31;4982527;28;21626;-69
2024/03/03 04:26:42;;;;;;;14.23;7.28;;;;;;;9.18;87.42;99628.41;4983546;28;20038;-69
2024/03/03 04:29:08;;;;;;;14.15;6.50;;;;;;;9.19;87.10;99633.41;4979032;28;20038;-69
2024/03/03 04:31:33;;;;;;;10.68;6.57;;;;;;;9.11;87.67;99633.47;5001770;28;20034;-69
2024/03/03 04:33:59;;;;;;;19.50;7.07;;;;;;;9.13;87.27;99642.66;4967583;28;20077;-69
2024/03/03 04:36:24;;;;;;;11.63;6.55;;;;;;;9.05;87.87;99650.50;4981252;28;22281;-69
2024/03/03 04:38:50;;;;;;;13.98;7.20;;;;;;;9.04;87.96;99642.91;4976116;28;20120;-69
2024/03/03 04:41:18;;;;;;;17.55;7.38;;;;;;;9.02;88.21;99645.66;4987245;28;20036;-69
2024/03/03 04:43:45;;;;;;;15.90;7.25;;;;;;;9.06;87.83;99639.19;4970812;28;20053;-69
2024/03/03 04:46:11;;;;;;;14.30;7.00;;;;;;;9.18;87.21;99646.53;5005821;28;20026;-68
2024/03/03 04:48:38;;;;;;;17.02;8.20;;;;;;;9.15;87.41;99647.66;4976143;28;20030;-69
2024/03/03 04:51:04;;;;;;;18.90;7.93;;;;;;;9.08;88.08;99650.16;4999931;28;20042;-69
2024/03/03 04:53:30;;;;;;;12.48;7.30;;;;;;;9.03;88.05;99647.28;4981801;28;20400;-69
2024/03/03 04:55:55;;;;;;;14.93;7.30;;;;;;;9.14;87.99;99639.09;4990898;28;20049;-69
2024/03/03 04:58:21;;;;;;;18.58;7.97;;;;;;;9.11;88.07;99649.78;5000652;28;20034;-69
2024/03/03 05:00:46;;;;;;;13.63;7.47;;;;;;;9.12;88.13;99635.88;4971537;28;20049;-69
2024/03/03 05:03:12;;;;;;;15.50;7.82;;;;;;;9.12;87.95;99628.13;4969686;28;20464;-69
2024/03/03 05:05:37;;;;;;;17.73;9.05;;;;;;;9.14;87.65;99639.09;4985436;28;20042;-69
2024/03/03 05:08:03;;;;;;;25.35;8.38;;;;;;;9.03;88.52;99643.91;4971083;28;20387;-69
2024/03/03 05:10:28;;;;;;;17.15;7.93;;;;;;;9.06;88.60;99638.34;4987052;28;20257;-69
2024/03/03 05:12:54;;;;;;;16.63;8.40;;;;;;;8.99;89.11;99637.47;5005053;28;20033;-69
2024/03/03 05:15:19;;;;;;;14.45;7.25;;;;;;;9.07;89.10;99627.03;5004027;28;20125;-69
2024/03/03 05:17:45;;;;;;;16.50;7.85;;;;;;;8.99;89.67;99622.75;4989244;28;20075;-69
2024/03/03 05:20:11;;;;;;;15.18;7.88;;;;;;;9.08;89.33;99644.97;4983213;28;20041;-70
2024/03/03 05:22:37;;;;;;;15.52;7.72;;;;;;;8.96;89.46;99654.91;4981749;28;20046;-69
2024/03/03 05:25:04;;;;;;;16.73;9.20;;;;;;;8.95;90.10;99644.75;4985250;28;20093;-69
2024/03/03 05:27:33;;;;;;;18.92;8.77;;;;;;;8.98;89.98;99649.56;4985073;28;20065;-68
2024/03/03 05:30:00;;;;;;;22.00;9.00;;;;;;;8.96;90.42;99656.69;4985857;28;20712;-69
2024/03/03 05:32:25;;;;;;;17.05;8.43;;;;;;;8.90;90.43;99659.97;4985120;28;20377;-69
2024/03/03 05:34:51;;;;;;;21.42;8.45;;;;;;;8.83;91.77;99666.81;5005076;28;20033;-69
2024/03/03 05:37:16;;;;;;;18.10;8.65;;;;;;;8.99;90.75;99666.72;4998726;28;20396;-69
2024/03/03 05:39:42;;;;;;;20.95;9.30;;;;;;;8.94;90.96;99656.88;4987077;28;20027;-69
2024/03/03 05:42:08;;;;;;;18.30;9.15;;;;;;;9.00;90.75;99657.94;5000719;28;21936;-69
2024/03/03 05:44:34;;;;;;;20.42;8.68;;;;;;;8.97;91.01;99663.50;4982762;28;20544;-69
2024/03/03 05:47:00;;;;;;;20.45;8.80;;;;;;;8.92;90.97;99669.16;4984605;28;20405;-69
2024/03/03 05:49:25;;;;;;;21.80;9.35;;;;;;;8.86;91.73;99671.66;4968548;28;20045;-69
2024/03/03 05:51:51;;;;;;;16.02;8.68;;;;;;;8.88;91.72;99673.06;4982666;28;20038;-69
2024/03/03 05:54:16;;;;;;;17.95;8.73;;;;;;;8.87;92.06;99671.47;5004804;28;20038;-69
2024/03/03 05:56:42;;;;;;;18.75;8.77;;;;;;;8.70;93.04;99678.53;5001291;28;20070;-69
2024/03/03 05:59:07;;;;;;;19.98;9.15;;;;;;;8.84;92.60;99681.34;4987360;28;20349;-69
2024/03/03 06:01:33;;;;;;;25.10;9.73;;;;;;;8.83;92.63;99682.31;4985105;28;20045;-69
2024/03/03 06:03:58;;;;;;;17.25;8.43;;;;;;;8.80;92.47;99680.06;4998812;28;20034;-69
2024/03/03 06:06:24;;;;;;;21.48;9.20;;;;;;;8.76;92.69;99675.25;5001055;28;20048;-69
2024/03/03 06:08:52;;;;;;;20.10;9.63;;;;;;;8.75;92.91;99688.34;5000154;28;20033;-69
2024/03/03 06:11:20;;;;;;;18.13;8.80;;;;;;;8.70;93.13;99686.28;4997981;28;20037;-69
2024/03/03 06:13:46;;;;;;;17.42;9.52;;;;;;;8.71;93.18;99684.50;5003889;28;20045;-69
2024/03/03 06:16:11;;;;;;;20.90;9.60;;;;;;;8.61;93.91;99679.56;5000395;28;20034;-69
2024/03/03 06:18:37;;;;;;;20.42;9.80;;;;;;;8.69;94.36;99686.47;4968124;28;20041;-68
2024/03/03 06:21:02;;;;;;;26.55;10.32;;;;;;;8.72;93.46;99684.34;4985540;28;20408;-69
2024/03/03 06:23:28;;;;;;;22.02;11.23;;;;;;;8.72;93.56;99679.16;5004692;28;20072;-69
2024/03/03 06:25:53;;;;;;;19.17;9.98;;;;;;;8.68;93.82;99680.50;4985241;28;20054;-69
2024/03/03 06:28:19;;;;;;;22.25;9.93;;;;;;;8.64;94.46;99681.78;5003900;28;20026;-69
2024/03/03 06:30:45;;;;;;;22.80;10.75;;;;;;;8.66;94.42;99695.34;4985513;28;20037;-69
2024/03/03 06:33:10;;;;;;;20.00;10.13;;;;;;;8.61;95.21;99694.22;4985257;28;20049;-69
2024/03/03 06:35:36;;;;;;;20.60;9.82;;;;;;;8.65;95.32;99686.00;5000352;28;20096;-69
2024/03/03 06:38:02;;;;;;;20.65;9.95;;;;;;;8.73;94.90;99673.00;5001589;28;20105;-69
2024/03/03 06:40:27;;;;;;;23.98;10.75;;;;;;;8.82;93.84;99670.38;4982263;28;20089;-69
2024/03/03 06:42:53;;;;;;;20.95;9.45;;;;;;;8.74;93.77;99668.66;4999599;28;20057;-69
2024/03/03 06:45:18;;;;;;;18.33;9.82;;;;;;;8.79;93.65;99660.38;4968996;28;20476;-69
2024/03/03 06:47:44;;;;;;;22.30;11.05;;;;;;;8.80;94.21;99660.22;4984252;28;20051;-69
2024/03/03 06:50:09;;;;;;;19.92;9.80;;;;;;;8.75;94.22;99658.13;4987229;28;20484;-68
2024/03/03 06:52:35;;;;;;;20.08;10.60;;;;;;;8.66;94.97;99656.56;4998170;28;20053;-69
2024/03/03 06:55:01;;;;;;;22.50;10.68;;;;;;;8.62;95.25;99657.09;4999383;28;20033;-69
2024/03/03 06:57:27;;;;;;;23.15;9.65;;;;;;;8.55;96.29;99668.13;4997721;28;20060;-69
2024/03/03 06:59:53;;;;;;;22.50;10.13;;;;;;;8.59;95.86;99694.44;4999412;28;20440;-69
2024/03/03 07:02:19;;;;;;;20.10;10.25;;;;;;;8.64;95.30;99694.69;4997927;28;20065;-69
2024/03/03 07:04:45;;;;;;;21.58;11.07;;;;;;;8.61;95.81;99702.00;5001716;28;20077;-69
2024/03/03 07:07:11;;;;;;;21.55;11.05;;;;;;;8.60;96.72;99697.81;4965766;28;20584;-69
2024/03/03 07:09:36;;;;;;;19.23;9.75;;;;;;;8.65;96.42;99696.31;5003043;28;20054;-69
2024/03/03 07:12:03;;;;;;;22.70;10.75;;;;;;;8.64;96.67;99691.31;4979895;28;20041;-69
2024/03/03 07:14:29;;;;;;;19.42;9.85;;;;;;;8.59;97.50;99678.94;4995627;28;20044;-69
2024/03/03 07:16:56;;;;;;;20.25;10.32;;;;;;;8.62;97.72;99694.06;4994525;28;20053;-69
2024/03/03 07:19:22;;;;;;;22.08;10.48;;;;;;;8.65;97.58;99690.34;4982319;28;20040;-69
2024/03/03 07:21:47;;;;;;;23.13;9.60;;;;;;;8.66;98.12;99679.03;4982725;28;20513;-69
2024/03/03 07:24:13;;;;;;;18.45;10.10;;;;;;;8.79;97.77;99699.16;4982309;28;20038;-69
2024/03/03 07:26:38;;;;;;;22.20;10.60;;;;;;;8.85;95.98;99719.16;4983107;28;20076;-69
2024/03/03 07:29:04;;;;;;;20.92;10.75;;;;;;;8.75;96.36;99722.75;5000857;28;20037;-68
2024/03/03 07:31:30;;;;;;;20.98;11.38;;;;;;;8.91;95.68;99721.03;4995892;28;20559;-69
2024/03/03 07:33:56;;;;;;;20.67;10.77;;;;;;;8.91;94.98;99721.88;4984504;28;20061;-69
2024/03/03 07:36:21;;;;;;;25.52;11.45;;;;;;;8.90;95.34;99717.66;4982680;28;20571;-69
2024/03/03 07:38:47;;;;;;;24.95;12.13;;;;;;;8.88;95.50;99727.38;5000960;28;20117;-69
2024/03/03 07:41:12;;;;;;;23.85;11.55;;;;;;;8.88;95.86;99718.81;4984162;28;20054;-69
2024/03/03 07:43:38;;;;;;;24.55;11.68;;;;;;;8.86;96.42;99716.41;4998347;28;20392;-69
2024/03/03 07:46:04;;;;;;;23.40;10.88;;;;;;;8.81;96.78;99723.84;4997781;28;20038;-69
2024/03/03 07:48:29;;;;;;;23.65;11.70;;;;;;;8.89;96.45;99731.56;4981800;28;20030;-68
2024/03/03 07:50:55;;;;;;;24.38;12.02;;;;;;;8.86;96.68;99720.75;4982922;28;20034;-69
2024/03/03 07:53:21;;;;;;;27.50;11.43;;;;;;;8.94;96.16;99723.28;4995840;28;20689;-69
2024/03/03 07:55:47;;;;;;;22.60;11.55;;;;;;;8.97;95.93;99730.72;4979715;28;20038;-69
2024/03/03 07:58:12;;;;;;;24.85;11.70;;;;;;;9.04;95.52;99723.88;4998890;28;20084;-69
2024/03/03 08:00:38;;;;;;;25.05;11.43;;;;;;;9.09;95.34;99729.31;5000396;28;20037;-68
2024/03/03 08:03:05;;;;;;;28.52;11.63;;;;;;;9.10;95.63;99728.38;5001455;28;20555;-69
2024/03/03 08:05:34;;;;;;;22.40;12.00;;;;;;;9.18;96.04;99727.50;4984518;28;20136;-69
2024/03/03 08:08:00;;;;;;;21.95;11.50;;;;;;;9.19;95.86;99726.50;4987769;28;20352;-69
2024/03/03 08:10:26;;;;;;;25.10;11.32;;;;;;;9.26;94.62;99724.84;4985232;28;20500;-70
2024/03/03 08:12:53;;;;;;;21.77;11.85;;;;;;;9.29;94.89;99728.88;4983506;28;20036;-69
2024/03/03 08:15:19;;;;;;;26.50;12.55;;;;;;;9.31;94.33;99732.09;4996036;28;20033;-69
2024/03/03 08:17:44;;;;;;;24.33;11.60;;;;;;;9.35;93.81;99734.16;4998975;28;20050;-69
2024/03/03 08:20:10;;;;;;;28.83;11.95;;;;;;;9.39;94.11;99733.81;4988292;28;20025;-71
2024/03/03 08:22:39;;;;;;;25.30;12.82;;;;;;;9.42;93.92;99744.63;4998460;28;20061;-69
2024/03/03 08:25:08;;;;;;;23.92;12.27;;;;;;;9.52;93.83;99757.31;4985586;28;20033;-69
2024/03/03 08:27:33;;;;;;;31.77;13.00;;;;;;;9.57;92.63;99756.78;4983446;28;20093;-69
2024/03/03 08:29:59;;;;;;;28.00;11.68;;;;;;;9.66;92.42;99759.16;5003116;28;20073;-69
2024/03/03 08:32:24;;;;;;;23.80;11.63;;;;;;;9.65;92.04;99769.69;4984087;28;20126;-69
2024/03/03 08:34:50;;;;;;;26.42;12.70;;;;;;;9.64;92.85;99768.06;5002141;28;20033;-69
2024/03/03 08:37:16;;;;;;;20.88;11.27;;;;;;;9.77;91.30;99768.25;4972230;28;20555;-69
2024/03/03 08:39:41;;;;;;;25.55;13.15;;;;;;;9.84;90.74;99764.00;4986485;28;20034;-69
2024/03/03 08:42:07;;;;;;;25.30;11.60;;;;;;;10.00;89.41;99762.22;5001529;28;20034;-69
2024/03/03 08:44:32;;;;;;;20.80;11.18;;;;;;;10.09;88.86;99766.34;4983659;28;22031;-69
2024/03/03 08:46:58;;;;;;;21.60;11.18;;;;;;;10.25;89.79;99755.81;4985203;28;20077;-69
2024/03/03 08:49:24;;;;;;;22.50;10.95;;;;;;;10.44;88.80;99764.84;5002367;28;20042;-69
2024/03/03 08:51:50;;;;;;;21.60;10.88;;;;;;;10.52;87.45;99761.38;5001424;28;20049;-69
2024/03/03 08:54:16;;;;;;;22.50;11.23;;;;;;;10.60;86.80;99756.06;4980389;28;20045;-68
2024/03/03 08:56:44;;;;;;;24.35;11.32;;;;;;;10.69;85.06;99759.38;4969787;28;20057;-69
2024/03/03 08:59:10;;;;;;;21.63;11.05;;;;;;;10.75;84.50;99770.81;4963278;28;20049;-69
2024/03/03 09:01:39;;;;;;;22.83;10.63;;;;;;;10.79;84.41;99767.66;4985079;28;20085;-69
2024/03/03 09:04:04;;;;;;;22.40;10.45;;;;;;;10.83;84.45;99765.50;5001194;28;20033;-69
2024/03/03 09:06:30;;;;;;;19.88;10.57;;;;;;;10.86;82.25;99770.34;4999246;28;20520;-69
2024/03/03 09:08:55;;;;;;;23.73;10.70;;;;;;;10.74;82.27;99767.41;5000119;28;20144;-69
2024/03/03 09:11:21;;;;;;;25.80;10.82;;;;;;;10.83;82.55;99763.75;4984496;28;20085;-69
2024/03/03 09:13:46;;;;;;;23.58;11.07;;;;;;;10.92;82.04;99756.63;4985081;28;20504;-69
2024/03/03 09:16:12;;;;;;;25.67;11.20;;;;;;;11.02;81.82;99759.75;4984635;28;20058;-69
2024/03/03 09:18:37;;;;;;;20.70;11.85;;;;;;;11.21;81.43;99755.75;4988146;28;20167;-69
2024/03/03 09:21:07;;;;;;;23.08;11.25;;;;;;;11.33;81.50;99757.84;4983138;28;20034;-69
2024/03/03 09:23:33;;;;;;;23.88;12.20;;;;;;;11.45;80.83;99761.53;4986489;28;20038;-69
2024/03/03 09:25:59;;;;;;;24.65;12.15;;;;;;;11.51;79.53;99773.78;4997921;28;20037;-69
2024/03/03 09:28:25;;;;;;;21.33;10.90;;;;;;;11.35;81.65;99772.22;4985387;28;20108;-69
2024/03/03 09:30:50;;;;;;;25.63;10.93;;;;;;;11.44;82.52;99772.91;4988097;28;20112;-70
2024/03/03 09:33:16;;;;;;;21.35;10.55;;;;;;;11.73;82.08;99774.53;4982503;28;20053;-68
2024/03/03 09:35:41;;;;;;;19.98;10.88;;;;;;;12.37;75.49;99768.38;4986156;28;20045;-71
2024/03/03 09:38:07;;;;;;;22.70;11.30;;;;;;;12.69;72.75;99762.72;4986703;28;20021;-70
2024/03/03 09:40:36;;;;;;;21.38;10.85;;;;;;;12.88;70.87;99771.56;5006500;28;20046;-71
2024/03/03 09:43:07;;;;;;;22.23;10.43;;;;;;;12.95;70.84;99754.19;5003490;28;20034;-71
2024/03/03 09:45:34;;;;;;;21.10;10.45;;;;;;;13.16;70.92;99754.03;4997967;28;20045;-71
2024/03/03 09:48:01;;;;;;;20.48;10.13;;;;;;;13.39;70.38;99748.50;4997867;28;20036;-71
2024/03/03 09:50:27;;;;;;;18.52;9.93;;;;;;;13.34;69.92;99740.47;4987765;28;20041;-70
2024/03/03 09:52:55;;;;;;;20.75;9.90;;;;;;;13.15;69.96;99736.03;4997113;28;20496;-71
2024/03/03 09:55:22;;;;;;;20.45;10.35;;;;;;;13.32;69.10;99741.69;4971839;28;20060;-71
2024/03/03 09:57:48;;;;;;;23.15;10.40;;;;;;;13.35;69.97;99738.66;4990515;28;20034;-71
2024/03/03 10:00:13;;;;;;;19.25;10.95;;;;;;;13.50;68.49;99736.66;4991017;28;20026;-71
2024/03/03 10:02:41;;;;;;;22.80;10.85;;;;;;;13.54;69.02;99727.47;5003436;28;20127;-70
2024/03/03 10:05:08;;;;;;;21.67;11.10;;;;;;;13.54;68.82;99724.84;5004664;28;20034;-70
2024/03/03 10:07:57;;;;;;;23.42;10.50;;;;;;;13.25;71.09;99723.41;5002104;23;20042;-75
2024/03/03 10:10:26;;;;;;;19.75;11.05;;;;;;;13.33;68.84;99725.03;4982224;28;20066;-75
2024/03/03 10:12:52;;;;;;;20.92;10.48;;;;;;;13.39;69.41;99722.44;4967684;28;20480;-75
2024/03/03 10:15:20;;;;;;;20.17;10.60;;;;;;;13.35;70.62;99713.41;4954458;28;20476;-75
2024/03/03 10:17:46;;;;;;;24.70;11.60;;;;;;;13.47;70.56;99718.84;4967495;28;20036;-74
2024/03/03 10:20:12;;;;;;;21.88;11.35;;;;;;;13.42;69.90;99711.63;4955910;28;20039;-75
2024/03/03 10:22:40;;;;;;;22.30;11.65;;;;;;;13.48;70.32;99711.81;4984530;28;20558;-75
2024/03/03 10:25:11;;;;;;;22.00;11.80;;;;;;;13.46;67.54;99704.19;4981353;28;20035;-75
2024/03/03 10:27:39;;;;;;;24.35;11.05;;;;;;;13.39;67.43;99706.81;4967025;28;20065;-75
2024/03/03 10:30:07;;;;;;;23.42;11.80;;;;;;;13.32;67.47;99692.22;4964751;28;20030;-75
2024/03/03 10:32:34;;;;;;;22.73;11.65;;;;;;;13.21;70.38;99698.78;4978795;28;20034;-75
2024/03/03 10:35:00;;;;;;;27.48;11.20;;;;;;;13.44;70.40;99696.59;4984087;28;20117;-75
2024/03/03 10:37:27;;;;;;;22.98;11.73;;;;;;;13.59;67.87;99696.38;4982279;28;20081;-75
2024/03/03 10:39:53;;;;;;;23.90;11.10;;;;;;;13.68;68.12;99686.56;4983588;28;20794;-75
2024/03/03 10:42:18;;;;;;;20.80;10.85;;;;;;;13.83;67.23;99689.72;4967703;28;20037;-75
2024/03/03 10:44:44;;;;;;;18.13;10.32;;;;;;;13.75;67.69;99692.56;4966671;28;20535;-74
2024/03/03 10:47:12;;;;;;;21.08;10.80;;;;;;;13.57;67.23;99684.56;4981243;28;20497;-74
2024/03/03 10:49:39;;;;;;;19.95;10.63;;;;;;;13.54;68.57;99684.97;4975843;28;20057;-75
2024/03/03 10:52:08;;;;;;;21.23;10.80;;;;;;;13.55;69.69;99689.19;4968408;28;20060;-75
2024/03/03 10:54:34;;;;;;;20.52;10.90;;;;;;;13.70;70.72;99694.97;4966717;28;20026;-75
2024/03/03 10:57:00;;;;;;;18.58;10.50;;;;;;;13.80;69.59;99695.34;4981245;28;20651;-75
2024/03/03 10:59:27;;;;;;;19.23;10.27;;;;;;;13.59;69.68;99692.97;4981594;28;20113;-75
2024/03/03 11:01:54;;;;;;;17.70;9.93;;;;;;;13.54;70.46;99692.78;4962133;28;20042;-75
2024/03/03 11:04:20;;;;;;;20.30;10.32;;;;;;;13.69;69.00;99679.53;4967976;28;20053;-75
2024/03/03 11:06:48;;;;;;;18.70;10.45;;;;;;;13.75;69.45;99674.31;4979939;28;20121;-75
2024/03/03 11:09:15;;;;;;;24.00;10.68;;;;;;;13.82;68.57;99684.72;4950698;28;20164;-75
2024/03/03 11:11:47;;;;;;;19.90;10.70;;;;;;;13.81;67.60;99683.94;4979237;28;20100;-75
2024/03/03 11:14:14;;;;;;;18.17;10.00;;;;;;;13.83;67.94;99679.31;4969926;28;20121;-75
2024/03/03 11:16:53;;;;;;;21.20;11.00;;;;;;;14.06;65.68;99667.63;4982692;28;20042;-75
2024/03/03 11:19:23;;;;;;;18.33;10.70;;;;;;;14.14;66.48;99666.59;4976700;28;20027;-75
2024/03/03 11:22:00;;;;;;;21.35;10.90;;;;;;;14.09;67.43;99661.19;4981782;28;20046;-75
2024/03/03 11:24:30;;;;;;;20.45;11.75;;;;;;;14.10;69.59;99662.78;4967914;28;20040;-75